createdAt,value
2023-04-26T00:00:09.362Z,97216.80
2023-04-26T00:02:36.753Z,97218.12
2023-04-26T00:05:05.438Z,97216.61
2023-04-26T00:07:32.777Z,97216.64
2023-04-26T00:10:00.063Z,97212.17
2023-04-26T00:12:27.303Z,97215.80
2023-04-26T00:14:54.461Z,97219.00
2023-04-26T00:17:21.500Z,97212.67
2023-04-26T00:19:48.673Z,97215.65
2023-04-26T00:22:15.711Z,97207.09
2023-04-26T00:24:43.706Z,97210.96
2023-04-26T00:27:11.024Z,97215.33
2023-04-26T00:29:38.286Z,97211.55
2023-04-26T00:39:42.057Z,97216.35
2023-04-26T00:42:08.957Z,97219.73
2023-04-26T00:44:36.638Z,97221.05
2023-04-26T00:47:03.875Z,97219.35
2023-04-26T00:49:31.298Z,97216.33
2023-04-26T00:51:58.376Z,97212.75
2023-04-26T00:54:25.900Z,97214.31
2023-04-26T00:56:53.496Z,97207.70
2023-04-26T00:59:21.464Z,97210.59
2023-04-26T01:01:49.410Z,97205.79
2023-04-26T01:04:17.067Z,97198.27
2023-04-26T01:06:47.171Z,97194.23
2023-04-26T01:16:59.148Z,97187.38
2023-04-26T01:19:26.296Z,97186.02
2023-04-26T01:21:53.209Z,97186.14
2023-04-26T01:24:21.635Z,97177.29
2023-04-26T01:26:48.791Z,97178.83
2023-04-26T01:29:18.176Z,97178.84
2023-04-26T01:31:46.291Z,97176.36
2023-04-26T01:34:13.810Z,97180.14
2023-04-26T01:36:41.162Z,97181.92
2023-04-26T01:39:11.289Z,97182.45
2023-04-26T01:41:38.327Z,97184.52
2023-04-26T01:44:05.696Z,97182.00
2023-04-26T01:46:36.083Z,97177.83
2023-04-26T01:49:03.258Z,97179.44
2023-04-26T01:51:30.348Z,97178.08
2023-04-26T01:53:57.257Z,97178.94
2023-04-26T01:56:26.146Z,97174.66
2023-04-26T01:58:55.661Z,97176.16
2023-04-26T02:01:23.905Z,97174.64
2023-04-26T02:03:53.846Z,97168.82
2023-04-26T02:06:21.943Z,97170.81
2023-04-26T02:08:49.796Z,97171.71
2023-04-26T02:11:17.064Z,97162.09
2023-04-26T02:13:44.279Z,97161.04
2023-04-26T02:16:11.560Z,97162.08
2023-04-26T02:18:39.210Z,97159.35
2023-04-26T02:21:09.071Z,97155.71
2023-04-26T02:23:36.260Z,97152.84
2023-04-26T02:26:03.395Z,97157.85
2023-04-26T02:28:31.687Z,97150.27
2023-04-26T02:30:59.055Z,97149.30
2023-04-26T02:33:26.286Z,97151.97
2023-04-26T02:35:53.326Z,97150.45
2023-04-26T02:38:20.903Z,97151.52
2023-04-26T02:40:48.164Z,97150.80
2023-04-26T02:43:16.243Z,97151.39
2023-04-26T02:45:43.495Z,97154.70
2023-04-26T02:48:12.084Z,97149.38
2023-04-26T02:50:39.242Z,97154.55
2023-04-26T02:53:06.560Z,97158.74
2023-04-26T02:55:33.804Z,97149.05
2023-04-26T02:58:01.044Z,97151.34
2023-04-26T03:00:28.797Z,97150.56
2023-04-26T03:02:57.241Z,97153.71
2023-04-26T03:05:24.878Z,97156.25
2023-04-26T03:07:52.823Z,97156.06
2023-04-26T03:10:19.952Z,97159.57
2023-04-26T03:12:47.136Z,97158.73
2023-04-26T03:15:15.596Z,97158.44
2023-04-26T03:17:43.477Z,97158.77
2023-04-26T03:20:11.849Z,97162.86
2023-04-26T03:22:39.512Z,97164.93
2023-04-26T03:25:08.109Z,97165.39
2023-04-26T03:27:35.236Z,97162.44
2023-04-26T03:30:02.329Z,97159.63
2023-04-26T03:32:30.144Z,97158.92
2023-04-26T03:34:57.435Z,97160.10
2023-04-26T03:37:24.872Z,97153.89
2023-04-26T03:39:57.643Z,97154.94
2023-04-26T03:42:24.911Z,97152.41
2023-04-26T03:44:52.037Z,97156.34
2023-04-26T03:47:19.095Z,97155.58
2023-04-26T03:49:46.243Z,97161.08
2023-04-26T03:52:13.151Z,97159.02
2023-04-26T03:54:40.134Z,97161.46
2023-04-26T03:57:07.310Z,97162.82
2023-04-26T03:59:35.170Z,97162.77
2023-04-26T04:02:02.196Z,97167.56
2023-04-26T04:04:31.443Z,97171.77
2023-04-26T04:06:59.659Z,97170.50
2023-04-26T04:09:26.835Z,97167.88
2023-04-26T04:11:57.861Z,97167.16
2023-04-26T04:14:25.718Z,97171.11
2023-04-26T04:16:52.865Z,97174.80
2023-04-26T04:19:20.116Z,97174.77
2023-04-26T04:21:47.808Z,97178.98
2023-04-26T04:32:15.402Z,97182.80
2023-04-26T04:34:47.723Z,97179.75
2023-04-26T04:37:17.326Z,97172.77
2023-04-26T04:39:47.569Z,97179.70
2023-04-26T04:42:15.568Z,97174.50
2023-04-26T04:44:43.146Z,97170.71
2023-04-26T04:47:10.580Z,97174.08
2023-04-26T04:49:38.675Z,97175.75
2023-04-26T04:52:09.784Z,97174.94
2023-04-26T04:54:37.023Z,97175.32
2023-04-26T04:57:04.103Z,97179.09
2023-04-26T04:59:33.933Z,97170.84
2023-04-26T05:02:22.186Z,97172.84
2023-04-26T05:04:52.629Z,97169.74
2023-04-26T05:07:19.646Z,97170.45
2023-04-26T05:09:46.772Z,97169.27
2023-04-26T05:12:18.111Z,97172.59
2023-04-26T05:15:08.146Z,97173.76
2023-04-26T05:17:35.557Z,97176.31
2023-04-26T05:20:12.748Z,97178.70
2023-04-26T05:22:40.231Z,97178.73
2023-04-26T05:25:15.228Z,97180.53
2023-04-26T05:27:42.908Z,97179.36
2023-04-26T05:30:21.247Z,97182.98
2023-04-26T05:33:23.795Z,97184.61
2023-04-26T05:35:58.622Z,97184.13
2023-04-26T05:38:25.801Z,97185.48
2023-04-26T05:40:53.507Z,97187.09
2023-04-26T05:43:20.890Z,97183.04
2023-04-26T05:45:56.302Z,97181.52
2023-04-26T05:48:24.921Z,97188.03
2023-04-26T05:50:52.392Z,97187.23
2023-04-26T05:53:19.931Z,97192.85
2023-04-26T05:55:48.324Z,97192.59
2023-04-26T05:58:16.127Z,97196.47
2023-04-26T06:00:46.586Z,97192.75
2023-04-26T06:03:13.943Z,97194.74
2023-04-26T06:06:04.271Z,97191.33
2023-04-26T06:08:34.623Z,97191.14
2023-04-26T06:11:03.038Z,97193.35
2023-04-26T06:13:32.135Z,97195.83
2023-04-26T06:15:59.775Z,97193.13
2023-04-26T06:19:06.993Z,97194.73
2023-04-26T06:21:35.926Z,97196.05
2023-04-26T06:24:04.002Z,97193.75
2023-04-26T06:26:32.539Z,97196.09
2023-04-26T06:28:59.697Z,97198.42
2023-04-26T06:31:26.894Z,97196.40
2023-04-26T06:33:54.501Z,97197.61
2023-04-26T06:36:44.066Z,97202.33
2023-04-26T06:39:12.065Z,97206.65
2023-04-26T06:41:41.893Z,97208.45
2023-04-26T06:44:10.118Z,97206.45
2023-04-26T06:46:42.052Z,97205.64
2023-04-26T06:49:10.616Z,97207.33
2023-04-26T06:51:37.650Z,97208.64
2023-04-26T06:54:05.488Z,97214.71
2023-04-26T06:56:32.641Z,97217.64
2023-04-26T06:59:20.302Z,97216.69
2023-04-26T07:01:47.553Z,97221.40
2023-04-26T07:04:17.377Z,97222.95
2023-04-26T07:06:45.562Z,97219.77
2023-04-26T07:09:13.679Z,97215.68
2023-04-26T07:11:40.824Z,97212.55
2023-04-26T07:14:08.262Z,97213.36
2023-04-26T07:16:39.656Z,97215.21
2023-04-26T07:19:11.328Z,97218.15
2023-04-26T07:21:39.807Z,97223.84
2023-04-26T07:24:07.038Z,97223.48
2023-04-26T07:26:36.463Z,97228.42
2023-04-26T07:29:04.121Z,97231.33
2023-04-26T07:31:35.940Z,97229.33
2023-04-26T07:34:02.923Z,97228.06
2023-04-26T07:36:32.996Z,97227.82
2023-04-26T07:39:00.041Z,97228.99
2023-04-26T07:41:27.299Z,97231.47
2023-04-26T07:43:57.097Z,97237.05
2023-04-26T07:46:25.632Z,97237.23
2023-04-26T07:48:52.721Z,97245.95
2023-04-26T07:51:21.142Z,97248.93
2023-04-26T07:53:48.781Z,97248.11
2023-04-26T07:56:15.775Z,97249.35
2023-04-26T07:58:42.816Z,97250.63
2023-04-26T08:01:11.826Z,97249.73
2023-04-26T08:03:39.176Z,97250.69
2023-04-26T08:06:27.976Z,97248.60
2023-04-26T08:08:55.438Z,97252.14
2023-04-26T08:11:26.898Z,97255.02
2023-04-26T08:13:54.490Z,97255.80
2023-04-26T08:16:25.247Z,97255.38
2023-04-26T08:18:52.431Z,97256.58
2023-04-26T08:21:19.850Z,97258.70
2023-04-26T08:23:46.914Z,97261.64
2023-04-26T08:26:13.791Z,97261.81
2023-04-26T08:28:41.093Z,97260.54
2023-04-26T08:31:08.422Z,97258.65
2023-04-26T08:38:32.674Z,97255.84
2023-04-26T11:25:42.503Z,97286.92
2023-04-26T11:28:09.650Z,97288.97
2023-04-26T11:30:36.589Z,97290.57
2023-04-26T11:33:27.890Z,97293.25
2023-04-26T11:35:58.145Z,97291.83
2023-04-26T11:38:48.832Z,97299.61
2023-04-26T11:41:15.877Z,97297.68
2023-04-26T11:43:43.102Z,97304.38
2023-04-26T11:46:10.505Z,97302.11
2023-04-26T11:48:38.881Z,97296.98
2023-04-26T11:51:07.869Z,97303.59
2023-04-26T11:53:54.492Z,97304.83
2023-04-26T11:56:23.209Z,97304.52
2023-04-26T11:58:52.173Z,97310.18
2023-04-26T12:01:30.153Z,97309.54
2023-04-26T12:03:59.831Z,97312.67
2023-04-26T12:07:10.530Z,97315.50
2023-04-26T12:09:42.247Z,97320.97
2023-04-26T12:12:09.107Z,97330.39
2023-04-26T12:14:57.448Z,97330.69
2023-04-26T12:17:24.728Z,97334.95
2023-04-26T12:19:51.930Z,97339.86
2023-04-26T12:22:21.415Z,97343.45
2023-04-26T12:24:48.994Z,97343.36
2023-04-26T12:27:42.669Z,97344.40
2023-04-26T12:30:11.213Z,97351.24
2023-04-26T12:32:41.967Z,97353.02
2023-04-26T12:35:10.020Z,97359.32
2023-04-26T12:37:38.072Z,97360.50
2023-04-26T12:40:07.408Z,97365.71
2023-04-26T12:42:34.461Z,97367.77
2023-04-26T12:45:01.538Z,97374.08
2023-04-26T12:47:28.735Z,97376.44
2023-04-26T12:49:56.612Z,97384.65
2023-04-26T12:52:24.869Z,97394.52
2023-04-26T12:54:52.308Z,97400.77
2023-04-26T12:57:21.229Z,97406.42
2023-04-26T12:59:48.760Z,97408.59
2023-04-26T13:02:36.429Z,97410.63
2023-04-26T13:05:04.743Z,97415.39
2023-04-26T13:07:36.895Z,97414.91
2023-04-26T13:10:24.231Z,97419.20
2023-04-26T13:12:53.992Z,97419.48
2023-04-26T13:15:21.881Z,97426.45
2023-04-26T13:17:48.902Z,97432.20
2023-04-26T13:20:15.995Z,97434.52
2023-04-26T13:22:43.791Z,97440.70
2023-04-26T13:25:11.352Z,97440.56
2023-04-26T13:27:41.337Z,97442.30
2023-04-26T13:30:09.065Z,97443.84
2023-04-26T13:32:36.442Z,97448.10
2023-04-26T13:39:55.491Z,97458.26
2023-04-26T13:56:10.784Z,97479.40
2023-04-26T19:46:16.107Z,97894.14
2023-04-26T20:02:31.281Z,97896.14
2023-04-26T20:09:25.171Z,97912.33
2023-04-26T20:42:06.340Z,97928.08
2023-04-26T20:44:33.224Z,97932.95
2023-04-26T20:47:00.349Z,97930.21
2023-04-26T20:49:28.545Z,97926.48
2023-04-26T20:51:56.298Z,97924.30
2023-04-26T20:54:23.288Z,97925.39
2023-04-26T20:56:50.278Z,97923.42
2023-04-26T20:59:17.202Z,97929.31
2023-04-26T21:01:44.223Z,97928.73
2023-04-26T21:04:11.380Z,97931.90
2023-04-26T21:06:38.819Z,97936.17
2023-04-26T21:09:05.705Z,97934.42
2023-04-26T21:11:32.762Z,97936.75
2023-04-26T21:13:59.597Z,97940.16
2023-04-26T21:16:26.580Z,97942.23
2023-04-26T21:18:53.485Z,97946.63
2023-04-26T21:21:20.520Z,97944.10
2023-04-26T21:23:47.497Z,97946.89
2023-04-26T21:26:17.323Z,97949.09
2023-04-26T21:28:44.195Z,97949.94
2023-04-26T21:31:11.766Z,97954.02
